sensor_id;sensor_type;location;lat;lon;timestamp;temperature;humidity
2723;DHT22;1369;53.216;10.396;2023-04-09T00:00:22;8.20;99.90
2723;DHT22;1369;53.216;10.396;2023-04-09T00:02:48;8.20;99.90
2723;DHT22;1369;53.216;10.396;2023-04-09T00:05:13;8.20;99.90
2723;DHT22;1369;53.216;10.396;2023-04-09T00:07:39;8.20;99.90
2723;DHT22;1369;53.216;10.396;2023-04-09T00:10:05;8.20;99.90
2723;DHT22;1369;53.216;10.396;2023-04-09T00:12:31;8.20;99.90
2723;DHT22;1369;53.216;10.396;2023-04-09T00:14:57;8.20;99.90
2723;DHT22;1369;53.216;10.396;2023-04-09T00:17:22;8.20;99.90
2723;DHT22;1369;53.216;10.396;2023-04-09T00:19:48;8.20;99.90
2723;DHT22;1369;53.216;10.396;2023-04-09T00:22:13;8.20;99.90
2723;DHT22;1369;53.216;10.396;2023-04-09T00:24:40;8.30;99.90
2723;DHT22;1369;53.216;10.396;2023-04-09T00:27:05;8.20;99.90
2723;DHT22;1369;53.216;10.396;2023-04-09T00:29:31;8.20;99.90
2723;DHT22;1369;53.216;10.396;2023-04-09T00:31:56;8.20;99.90
2723;DHT22;1369;53.216;10.396;2023-04-09T00:34:22;8.10;99.90
2723;DHT22;1369;53.216;10.396;2023-04-09T00:36:47;8.10;99.90
2723;DHT22;1369;53.216;10.396;2023-04-09T00:39:13;8.10;99.90
2723;DHT22;1369;53.216;10.396;2023-04-09T00:41:38;8.20;99.90
2723;DHT22;1369;53.216;10.396;2023-04-09T00:44:04;8.20;99.90
2723;DHT22;1369;53.216;10.396;2023-04-09T00:46:30;8.20;99.90
2723;DHT22;1369;53.216;10.396;2023-04-09T00:48:56;8.20;99.90
2723;DHT22;1369;53.216;10.396;2023-04-09T00:51:22;8.20;99.90
2723;DHT22;1369;53.216;10.396;2023-04-09T00:53:48;8.20;99.90
2723;DHT22;1369;53.216;10.396;2023-04-09T00:56:14;8.10;99.90
2723;DHT22;1369;53.216;10.396;2023-04-09T00:58:41;8.10;99.90
2723;DHT22;1369;53.216;10.396;2023-04-09T01:01:06;8.10;99.90
2723;DHT22;1369;53.216;10.396;2023-04-09T01:03:32;8.20;99.90
2723;DHT22;1369;53.216;10.396;2023-04-09T01:06:22;8.20;99.90
2723;DHT22;1369;53.216;10.396;2023-04-09T01:11:27;8.20;99.90
2723;DHT22;1369;53.216;10.396;2023-04-09T01:14:17;8.20;99.90
2723;DHT22;1369;53.216;10.396;2023-04-09T01:16:47;8.10;99.90
2723;DHT22;1369;53.216;10.396;2023-04-09T01:19:40;8.10;99.90
2723;DHT22;1369;53.216;10.396;2023-04-09T01:22:13;8.00;99.90
2723;DHT22;1369;53.216;10.396;2023-04-09T01:24:56;8.10;99.90
2723;DHT22;1369;53.216;10.396;2023-04-09T01:27:29;8.00;99.90
2723;DHT22;1369;53.216;10.396;2023-04-09T01:29:59;8.00;99.90
2723;DHT22;1369;53.216;10.396;2023-04-09T01:32:28;7.90;99.90
2723;DHT22;1369;53.216;10.396;2023-04-09T01:34:56;8.00;99.90
2723;DHT22;1369;53.216;10.396;2023-04-09T01:37:22;8.00;99.90
2723;DHT22;1369;53.216;10.396;2023-04-09T01:39:49;8.00;99.90
2723;DHT22;1369;53.216;10.396;2023-04-09T01:42:15;8.00;99.90
2723;DHT22;1369;53.216;10.396;2023-04-09T01:44:41;7.90;99.90
2723;DHT22;1369;53.216;10.396;2023-04-09T01:47:09;7.90;99.90
2723;DHT22;1369;53.216;10.396;2023-04-09T01:49:35;7.90;99.90
2723;DHT22;1369;53.216;10.396;2023-04-09T01:52:02;7.80;99.90
2723;DHT22;1369;53.216;10.396;2023-04-09T01:54:27;7.70;99.90
2723;DHT22;1369;53.216;10.396;2023-04-09T01:56:53;7.70;99.90
2723;DHT22;1369;53.216;10.396;2023-04-09T01:59:21;7.70;99.90
2723;DHT22;1369;53.216;10.396;2023-04-09T02:01:59;7.70;99.90
2723;DHT22;1369;53.216;10.396;2023-04-09T02:04:32;7.60;99.90
2723;DHT22;1369;53.216;10.396;2023-04-09T02:07:10;7.70;99.90
2723;DHT22;1369;53.216;10.396;2023-04-09T02:09:40;7.70;99.90
2723;DHT22;1369;53.216;10.396;2023-04-09T02:12:10;7.70;99.90
2723;DHT22;1369;53.216;10.396;2023-04-09T02:14:36;7.80;99.90
2723;DHT22;1369;53.216;10.396;2023-04-09T02:17:03;7.80;99.90
2723;DHT22;1369;53.216;10.396;2023-04-09T02:19:40;7.70;99.90
2723;DHT22;1369;53.216;10.396;2023-04-09T02:22:06;7.60;99.90
2723;DHT22;1369;53.216;10.396;2023-04-09T02:24:32;7.60;99.90
2723;DHT22;1369;53.216;10.396;2023-04-09T02:26:57;7.70;99.90
2723;DHT22;1369;53.216;10.396;2023-04-09T02:29:23;7.70;99.90
2723;DHT22;1369;53.216;10.396;2023-04-09T02:31:48;7.60;99.90
2723;DHT22;1369;53.216;10.396;2023-04-09T02:34:17;7.70;99.90
2723;DHT22;1369;53.216;10.396;2023-04-09T02:36:43;7.70;99.90
2723;DHT22;1369;53.216;10.396;2023-04-09T02:39:08;7.60;99.90
2723;DHT22;1369;53.216;10.396;2023-04-09T02:41:34;7.60;99.90
2723;DHT22;1369;53.216;10.396;2023-04-09T02:43:59;7.50;99.90
2723;DHT22;1369;53.216;10.396;2023-04-09T02:46:25;7.50;99.90
2723;DHT22;1369;53.216;10.396;2023-04-09T02:48:50;7.50;99.90
2723;DHT22;1369;53.216;10.396;2023-04-09T02:51:16;7.50;99.90
2723;DHT22;1369;53.216;10.396;2023-04-09T02:53:41;7.50;99.90
2723;DHT22;1369;53.216;10.396;2023-04-09T02:56:07;7.50;99.90
2723;DHT22;1369;53.216;10.396;2023-04-09T02:58:32;7.50;99.90
2723;DHT22;1369;53.216;10.396;2023-04-09T03:00:58;7.60;99.90
2723;DHT22;1369;53.216;10.396;2023-04-09T03:03:23;7.50;99.90
2723;DHT22;1369;53.216;10.396;2023-04-09T03:05:49;7.50;99.90
2723;DHT22;1369;53.216;10.396;2023-04-09T03:08:15;7.40;99.90
2723;DHT22;1369;53.216;10.396;2023-04-09T03:10:40;7.40;99.90
2723;DHT22;1369;53.216;10.396;2023-04-09T03:13:06;7.40;99.90
2723;DHT22;1369;53.216;10.396;2023-04-09T03:15:31;7.30;99.90
2723;DHT22;1369;53.216;10.396;2023-04-09T03:17:57;7.30;99.90
2723;DHT22;1369;53.216;10.396;2023-04-09T03:20:22;7.20;99.90
2723;DHT22;1369;53.216;10.396;2023-04-09T03:22:48;7.20;99.90
2723;DHT22;1369;53.216;10.396;2023-04-09T03:25:13;7.20;99.90
2723;DHT22;1369;53.216;10.396;2023-04-09T03:27:39;7.20;99.90
2723;DHT22;1369;53.216;10.396;2023-04-09T03:30:04;7.20;99.90
2723;DHT22;1369;53.216;10.396;2023-04-09T03:32:30;7.30;99.90
2723;DHT22;1369;53.216;10.396;2023-04-09T03:34:56;7.40;99.90
2723;DHT22;1369;53.216;10.396;2023-04-09T03:37:21;7.30;99.90
2723;DHT22;1369;53.216;10.396;2023-04-09T03:39:47;7.40;99.90
2723;DHT22;1369;53.216;10.396;2023-04-09T03:42:12;7.40;99.90
2723;DHT22;1369;53.216;10.396;2023-04-09T03:44:37;7.50;99.90
2723;DHT22;1369;53.216;10.396;2023-04-09T03:47:03;7.50;99.90
2723;DHT22;1369;53.216;10.396;2023-04-09T03:49:28;7.50;99.90
2723;DHT22;1369;53.216;10.396;2023-04-09T03:51:54;7.40;99.90
2723;DHT22;1369;53.216;10.396;2023-04-09T03:54:19;7.40;99.90
2723;DHT22;1369;53.216;10.396;2023-04-09T03:56:45;7.30;99.90
2723;DHT22;1369;53.216;10.396;2023-04-09T03:59:10;7.20;99.90
2723;DHT22;1369;53.216;10.396;2023-04-09T04:01:36;7.20;99.90
2723;DHT22;1369;53.216;10.396;2023-04-09T04:04:01;7.20;99.90
2723;DHT22;1369;53.216;10.396;2023-04-09T04:06:27;7.30;99.90
2723;DHT22;1369;53.216;10.396;2023-04-09T04:08:52;7.30;99.90
2723;DHT22;1369;53.216;10.396;2023-04-09T04:11:18;7.40;99.90
2723;DHT22;1369;53.216;10.396;2023-04-09T04:13:43;7.40;99.90
2723;DHT22;1369;53.216;10.396;2023-04-09T04:16:09;7.50;99.90
2723;DHT22;1369;53.216;10.396;2023-04-09T04:18:35;7.50;99.90
2723;DHT22;1369;53.216;10.396;2023-04-09T04:21:01;7.50;99.90
2723;DHT22;1369;53.216;10.396;2023-04-09T04:23:26;7.60;99.90
2723;DHT22;1369;53.216;10.396;2023-04-09T04:25:52;7.60;99.90
2723;DHT22;1369;53.216;10.396;2023-04-09T04:28:17;7.60;99.90
2723;DHT22;1369;53.216;10.396;2023-04-09T04:30:43;7.50;99.90
2723;DHT22;1369;53.216;10.396;2023-04-09T04:33:09;7.50;99.90
2723;DHT22;1369;53.216;10.396;2023-04-09T04:35:34;7.50;99.90
2723;DHT22;1369;53.216;10.396;2023-04-09T04:38:00;7.40;99.90
2723;DHT22;1369;53.216;10.396;2023-04-09T04:40:26;7.40;99.90
2723;DHT22;1369;53.216;10.396;2023-04-09T04:42:51;7.40;99.90
2723;DHT22;1369;53.216;10.396;2023-04-09T04:45:17;7.40;99.90
2723;DHT22;1369;53.216;10.396;2023-04-09T04:47:42;7.40;99.90
2723;DHT22;1369;53.216;10.396;2023-04-09T04:50:08;7.40;99.90
2723;DHT22;1369;53.216;10.396;2023-04-09T04:52:35;7.40;99.90
2723;DHT22;1369;53.216;10.396;2023-04-09T04:55:00;7.40;99.90
2723;DHT22;1369;53.216;10.396;2023-04-09T04:57:26;7.50;99.90
2723;DHT22;1369;53.216;10.396;2023-04-09T04:59:51;7.50;99.90
2723;DHT22;1369;53.216;10.396;2023-04-09T05:02:17;7.60;99.90
2723;DHT22;1369;53.216;10.396;2023-04-09T05:04:42;7.50;99.90
2723;DHT22;1369;53.216;10.396;2023-04-09T05:07:08;7.50;99.90
2723;DHT22;1369;53.216;10.396;2023-04-09T05:09:33;7.40;99.90
2723;DHT22;1369;53.216;10.396;2023-04-09T05:11:59;7.40;99.90
2723;DHT22;1369;53.216;10.396;2023-04-09T05:14:25;7.40;99.90
2723;DHT22;1369;53.216;10.396;2023-04-09T05:16:51;7.40;99.90
2723;DHT22;1369;53.216;10.396;2023-04-09T05:19:16;7.50;99.90
2723;DHT22;1369;53.216;10.396;2023-04-09T05:21:42;7.50;99.90
2723;DHT22;1369;53.216;10.396;2023-04-09T05:24:07;7.60;99.90
2723;DHT22;1369;53.216;10.396;2023-04-09T05:26:33;7.70;99.90
2723;DHT22;1369;53.216;10.396;2023-04-09T05:28:58;7.70;99.90
2723;DHT22;1369;53.216;10.396;2023-04-09T05:31:23;7.80;99.90
2723;DHT22;1369;53.216;10.396;2023-04-09T05:33:49;7.80;99.90
2723;DHT22;1369;53.216;10.396;2023-04-09T05:36:16;7.80;99.90
2723;DHT22;1369;53.216;10.396;2023-04-09T05:38:43;7.80;99.90
2723;DHT22;1369;53.216;10.396;2023-04-09T05:41:08;7.90;99.90
2723;DHT22;1369;53.216;10.396;2023-04-09T05:43:34;7.80;99.90
2723;DHT22;1369;53.216;10.396;2023-04-09T05:45:59;7.80;99.90
2723;DHT22;1369;53.216;10.396;2023-04-09T05:48:25;7.70;99.90
2723;DHT22;1369;53.216;10.396;2023-04-09T05:50:51;7.80;99.90
2723;DHT22;1369;53.216;10.396;2023-04-09T05:53:18;7.80;99.90
2723;DHT22;1369;53.216;10.396;2023-04-09T05:55:44;7.60;99.90
2723;DHT22;1369;53.216;10.396;2023-04-09T05:58:10;7.50;99.90
2723;DHT22;1369;53.216;10.396;2023-04-09T06:00:36;7.60;99.90
2723;DHT22;1369;53.216;10.396;2023-04-09T06:03:02;7.70;99.90
2723;DHT22;1369;53.216;10.396;2023-04-09T06:05:27;7.80;99.90
2723;DHT22;1369;53.216;10.396;2023-04-09T06:07:53;7.80;99.90
2723;DHT22;1369;53.216;10.396;2023-04-09T06:10:18;7.80;99.90
2723;DHT22;1369;53.216;10.396;2023-04-09T06:12:44;7.90;99.90
2723;DHT22;1369;53.216;10.396;2023-04-09T06:15:10;8.00;99.90
2723;DHT22;1369;53.216;10.396;2023-04-09T06:17:35;8.10;99.90
2723;DHT22;1369;53.216;10.396;2023-04-09T06:20:01;8.20;99.90
2723;DHT22;1369;53.216;10.396;2023-04-09T06:22:26;8.30;99.90
2723;DHT22;1369;53.216;10.396;2023-04-09T06:24:52;8.40;99.90
2723;DHT22;1369;53.216;10.396;2023-04-09T06:27:17;8.40;99.90
2723;DHT22;1369;53.216;10.396;2023-04-09T06:29:43;8.40;99.90
2723;DHT22;1369;53.216;10.396;2023-04-09T06:32:09;8.50;99.90
2723;DHT22;1369;53.216;10.396;2023-04-09T06:34:34;8.50;99.90
2723;DHT22;1369;53.216;10.396;2023-04-09T06:37:00;8.50;99.90
2723;DHT22;1369;53.216;10.396;2023-04-09T06:39:25;8.50;99.90
2723;DHT22;1369;53.216;10.396;2023-04-09T06:41:52;8.40;99.90
2723;DHT22;1369;53.216;10.396;2023-04-09T06:44:17;8.40;99.90
2723;DHT22;1369;53.216;10.396;2023-04-09T06:46:44;8.20;99.90
2723;DHT22;1369;53.216;10.396;2023-04-09T06:49:09;8.10;99.90
2723;DHT22;1369;53.216;10.396;2023-04-09T06:51:35;8.10;99.90
2723;DHT22;1369;53.216;10.396;2023-04-09T06:54:00;8.10;99.90
2723;DHT22;1369;53.216;10.396;2023-04-09T06:56:26;8.00;99.90
2723;DHT22;1369;53.216;10.396;2023-04-09T06:58:51;8.10;99.90
2723;DHT22;1369;53.216;10.396;2023-04-09T07:01:17;8.20;99.90
2723;DHT22;1369;53.216;10.396;2023-04-09T07:03:42;8.30;99.90
2723;DHT22;1369;53.216;10.396;2023-04-09T07:06:08;8.40;99.90
2723;DHT22;1369;53.216;10.396;2023-04-09T07:08:34;8.40;99.90
2723;DHT22;1369;53.216;10.396;2023-04-09T07:11:00;8.40;99.90
2723;DHT22;1369;53.216;10.396;2023-04-09T07:13:25;8.10;99.90
2723;DHT22;1369;53.216;10.396;2023-04-09T07:15:51;8.00;99.90
2723;DHT22;1369;53.216;10.396;2023-04-09T07:18:16;7.90;99.90
2723;DHT22;1369;53.216;10.396;2023-04-09T07:20:42;8.20;99.90
2723;DHT22;1369;53.216;10.396;2023-04-09T07:23:07;8.30;99.90
2723;DHT22;1369;53.216;10.396;2023-04-09T07:25:33;8.30;99.90
2723;DHT22;1369;53.216;10.396;2023-04-09T07:27:58;8.40;99.90
2723;DHT22;1369;53.216;10.396;2023-04-09T07:30:24;8.50;99.90
2723;DHT22;1369;53.216;10.396;2023-04-09T07:32:49;8.40;99.90
2723;DHT22;1369;53.216;10.396;2023-04-09T07:35:15;8.70;99.90
2723;DHT22;1369;53.216;10.396;2023-04-09T07:37:42;8.90;99.90
2723;DHT22;1369;53.216;10.396;2023-04-09T07:40:08;9.10;99.90
2723;DHT22;1369;53.216;10.396;2023-04-09T07:42:36;9.30;99.90
2723;DHT22;1369;53.216;10.396;2023-04-09T07:45:02;9.50;99.90
2723;DHT22;1369;53.216;10.396;2023-04-09T07:47:28;9.80;99.90
2723;DHT22;1369;53.216;10.396;2023-04-09T07:49:53;10.00;99.90
2723;DHT22;1369;53.216;10.396;2023-04-09T07:52:19;10.20;99.90
2723;DHT22;1369;53.216;10.396;2023-04-09T07:54:45;10.50;99.90
2723;DHT22;1369;53.216;10.396;2023-04-09T07:57:10;10.80;99.90
2723;DHT22;1369;53.216;10.396;2023-04-09T07:59:36;11.10;99.90
2723;DHT22;1369;53.216;10.396;2023-04-09T08:02:02;11.40;99.90
2723;DHT22;1369;53.216;10.396;2023-04-09T08:04:28;11.50;99.90
2723;DHT22;1369;53.216;10.396;2023-04-09T08:06:53;11.40;99.90
2723;DHT22;1369;53.216;10.396;2023-04-09T08:09:19;11.40;99.90
2723;DHT22;1369;53.216;10.396;2023-04-09T08:11:46;11.30;99.90
2723;DHT22;1369;53.216;10.396;2023-04-09T08:14:13;11.40;99.90
2723;DHT22;1369;53.216;10.396;2023-04-09T08:16:40;11.30;99.90
2723;DHT22;1369;53.216;10.396;2023-04-09T08:19:07;11.30;99.90
2723;DHT22;1369;53.216;10.396;2023-04-09T08:21:32;11.40;99.90
2723;DHT22;1369;53.216;10.396;2023-04-09T08:23:58;11.60;99.90
2723;DHT22;1369;53.216;10.396;2023-04-09T08:26:28;11.50;99.90
2723;DHT22;1369;53.216;10.396;2023-04-09T08:28:54;11.30;99.90
2723;DHT22;1369;53.216;10.396;2023-04-09T08:31:19;11.50;99.90
2723;DHT22;1369;53.216;10.396;2023-04-09T08:33:45;11.60;99.90
2723;DHT22;1369;53.216;10.396;2023-04-09T08:36:11;11.60;99.90
2723;DHT22;1369;53.216;10.396;2023-04-09T08:38:37;11.50;99.90
2723;DHT22;1369;53.216;10.396;2023-04-09T08:41:02;11.30;99.90
2723;DHT22;1369;53.216;10.396;2023-04-09T08:43:29;11.20;99.90
2723;DHT22;1369;53.216;10.396;2023-04-09T08:45:56;11.00;99.90
2723;DHT22;1369;53.216;10.396;2023-04-09T08:48:23;11.00;99.90
2723;DHT22;1369;53.216;10.396;2023-04-09T08:50:50;11.00;99.90
2723;DHT22;1369;53.216;10.396;2023-04-09T08:53:15;10.90;99.90
2723;DHT22;1369;53.216;10.396;2023-04-09T08:55:44;10.80;99.90
2723;DHT22;1369;53.216;10.396;2023-04-09T08:58:11;10.50;99.90
2723;DHT22;1369;53.216;10.396;2023-04-09T09:00:36;10.20;99.90
2723;DHT22;1369;53.216;10.396;2023-04-09T09:03:06;10.30;99.90
2723;DHT22;1369;53.216;10.396;2023-04-09T09:05:43;10.60;99.90
2723;DHT22;1369;53.216;10.396;2023-04-09T09:08:11;10.70;99.90
2723;DHT22;1369;53.216;10.396;2023-04-09T09:10:42;10.90;99.90
2723;DHT22;1369;53.216;10.396;2023-04-09T09:13:23;11.10;99.90
2723;DHT22;1369;53.216;10.396;2023-04-09T09:15:50;11.30;99.90
2723;DHT22;1369;53.216;10.396;2023-04-09T09:18:20;11.50;99.90
2723;DHT22;1369;53.216;10.396;2023-04-09T09:20:46;11.60;99.90
2723;DHT22;1369;53.216;10.396;2023-04-09T09:23:12;11.60;99.90
2723;DHT22;1369;53.216;10.396;2023-04-09T09:25:38;11.60;99.90
2723;DHT22;1369;53.216;10.396;2023-04-09T09:28:11;11.70;99.90
2723;DHT22;1369;53.216;10.396;2023-04-09T09:30:38;11.90;99.90
2723;DHT22;1369;53.216;10.396;2023-04-09T09:35:30;12.10;99.90
2723;DHT22;1369;53.216;10.396;2023-04-09T09:38:02;12.10;99.90
2723;DHT22;1369;53.216;10.396;2023-04-09T09:40:28;12.10;99.90
2723;DHT22;1369;53.216;10.396;2023-04-09T09:42:57;12.10;99.90
2723;DHT22;1369;53.216;10.396;2023-04-09T09:45:23;12.40;99.90
2723;DHT22;1369;53.216;10.396;2023-04-09T09:47:50;12.70;99.90
2723;DHT22;1369;53.216;10.396;2023-04-09T09:50:16;13.00;99.90
2723;DHT22;1369;53.216;10.396;2023-04-09T09:52:44;13.30;99.90
2723;DHT22;1369;53.216;10.396;2023-04-09T09:55:12;13.50;99.90
2723;DHT22;1369;53.216;10.396;2023-04-09T09:57:41;13.10;99.90
2723;DHT22;1369;53.216;10.396;2023-04-09T10:00:10;13.10;99.90
2723;DHT22;1369;53.216;10.396;2023-04-09T10:02:49;13.20;99.90
2723;DHT22;1369;53.216;10.396;2023-04-09T10:05:17;13.90;99.90
2723;DHT22;1369;53.216;10.396;2023-04-09T10:07:45;14.50;99.90
2723;DHT22;1369;53.216;10.396;2023-04-09T10:10:12;15.20;99.90
2723;DHT22;1369;53.216;10.396;2023-04-09T10:12:37;15.90;99.90
2723;DHT22;1369;53.216;10.396;2023-04-09T10:15:06;16.50;99.90
2723;DHT22;1369;53.216;10.396;2023-04-09T10:17:33;16.90;99.90
2723;DHT22;1369;53.216;10.396;2023-04-09T10:20:18;17.30;99.90
2723;DHT22;1369;53.216;10.396;2023-04-09T10:22:49;17.60;99.90
2723;DHT22;1369;53.216;10.396;2023-04-09T10:25:16;17.40;99.90
2723;DHT22;1369;53.216;10.396;2023-04-09T10:27:42;17.40;99.90
2723;DHT22;1369;53.216;10.396;2023-04-09T10:30:33;17.40;99.90
2723;DHT22;1369;53.216;10.396;2023-04-09T10:33:28;17.10;99.90
2723;DHT22;1369;53.216;10.396;2023-04-09T10:35:58;16.60;99.90
2723;DHT22;1369;53.216;10.396;2023-04-09T10:41:07;16.10;99.90
2723;DHT22;1369;53.216;10.396;2023-04-09T10:43:35;15.80;99.90
2723;DHT22;1369;53.216;10.396;2023-04-09T10:46:03;15.10;99.90
2723;DHT22;1369;53.216;10.396;2023-04-09T10:48:32;14.80;99.90
2723;DHT22;1369;53.216;10.396;2023-04-09T10:50:58;14.90;99.90
2723;DHT22;1369;53.216;10.396;2023-04-09T10:53:26;14.80;99.90
2723;DHT22;1369;53.216;10.396;2023-04-09T10:55:52;14.70;99.90
2723;DHT22;1369;53.216;10.396;2023-04-09T10:58:19;14.80;99.90
2723;DHT22;1369;53.216;10.396;2023-04-09T11:00:46;14.80;99.90
2723;DHT22;1369;53.216;10.396;2023-04-09T11:06:05;15.40;99.90
2723;DHT22;1369;53.216;10.396;2023-04-09T11:08:33;15.30;99.90
2723;DHT22;1369;53.216;10.396;2023-04-09T11:11:00;15.20;99.90
2723;DHT22;1369;53.216;10.396;2023-04-09T11:13:26;15.20;99.90
2723;DHT22;1369;53.216;10.396;2023-04-09T11:15:54;15.30;99.90
2723;DHT22;1369;53.216;10.396;2023-04-09T11:18:22;15.40;99.90
2723;DHT22;1369;53.216;10.396;2023-04-09T11:20:48;15.20;99.90
2723;DHT22;1369;53.216;10.396;2023-04-09T11:23:16;15.50;99.90
2723;DHT22;1369;53.216;10.396;2023-04-09T11:25:46;15.40;99.90
2723;DHT22;1369;53.216;10.396;2023-04-09T11:28:13;15.30;99.90
2723;DHT22;1369;53.216;10.396;2023-04-09T11:30:38;15.10;99.90
2723;DHT22;1369;53.216;10.396;2023-04-09T11:33:04;15.20;99.90
2723;DHT22;1369;53.216;10.396;2023-04-09T11:35:33;15.40;99.90
2723;DHT22;1369;53.216;10.396;2023-04-09T11:37:59;15.60;99.90
2723;DHT22;1369;53.216;10.396;2023-04-09T11:40:26;15.80;99.90
2723;DHT22;1369;53.216;10.396;2023-04-09T11:42:53;16.00;99.90
2723;DHT22;1369;53.216;10.396;2023-04-09T11:45:27;16.20;99.90
2723;DHT22;1369;53.216;10.396;2023-04-09T11:47:53;15.90;99.90
2723;DHT22;1369;53.216;10.396;2023-04-09T11:50:20;15.90;99.90
2723;DHT22;1369;53.216;10.396;2023-04-09T11:52:46;16.10;99.90
2723;DHT22;1369;53.216;10.396;2023-04-09T11:55:22;16.20;99.90
2723;DHT22;1369;53.216;10.396;2023-04-09T11:57:50;16.20;99.90
2723;DHT22;1369;53.216;10.396;2023-04-09T12:00:17;16.30;99.90
2723;DHT22;1369;53.216;10.396;2023-04-09T12:02:48;16.40;99.90
2723;DHT22;1369;53.216;10.396;2023-04-09T12:05:21;16.00;99.90
2723;DHT22;1369;53.216;10.396;2023-04-09T12:07:47;16.20;99.90
2723;DHT22;1369;53.216;10.396;2023-04-09T12:10:13;16.40;99.90
2723;DHT22;1369;53.216;10.396;2023-04-09T12:12:46;16.20;99.90
2723;DHT22;1369;53.216;10.396;2023-04-09T12:15:18;16.30;99.90
2723;DHT22;1369;53.216;10.396;2023-04-09T12:17:53;16.30;99.90
2723;DHT22;1369;53.216;10.396;2023-04-09T12:20:36;16.40;99.90
2723;DHT22;1369;53.216;10.396;2023-04-09T12:23:04;16.60;99.90
2723;DHT22;1369;53.216;10.396;2023-04-09T12:25:32;16.60;99.90
2723;DHT22;1369;53.216;10.396;2023-04-09T12:27:58;16.10;99.90
2723;DHT22;1369;53.216;10.396;2023-04-09T12:30:24;16.20;99.90
2723;DHT22;1369;53.216;10.396;2023-04-09T12:32:51;16.40;99.90
2723;DHT22;1369;53.216;10.396;2023-04-09T12:35:16;16.50;99.90
2723;DHT22;1369;53.216;10.396;2023-04-09T12:37:43;16.70;99.90
2723;DHT22;1369;53.216;10.396;2023-04-09T12:40:09;16.90;99.90
2723;DHT22;1369;53.216;10.396;2023-04-09T12:42:37;17.00;99.90
2723;DHT22;1369;53.216;10.396;2023-04-09T12:45:02;16.90;99.90
2723;DHT22;1369;53.216;10.396;2023-04-09T12:47:28;17.00;99.90
2723;DHT22;1369;53.216;10.396;2023-04-09T12:49:53;16.80;99.90
2723;DHT22;1369;53.216;10.396;2023-04-09T12:52:20;16.50;99.90
2723;DHT22;1369;53.216;10.396;2023-04-09T12:54:46;16.50;99.90
2723;DHT22;1369;53.216;10.396;2023-04-09T12:57:12;16.40;99.90
2723;DHT22;1369;53.216;10.396;2023-04-09T12:59:37;16.20;99.90
2723;DHT22;1369;53.216;10.396;2023-04-09T13:02:03;16.40;99.90
2723;DHT22;1369;53.216;10.396;2023-04-09T13:04:28;16.40;99.90
2723;DHT22;1369;53.216;10.396;2023-04-09T13:06:55;16.40;99.90
2723;DHT22;1369;53.216;10.396;2023-04-09T13:09:20;16.10;99.90
2723;DHT22;1369;53.216;10.396;2023-04-09T13:11:46;16.40;99.90
2723;DHT22;1369;53.216;10.396;2023-04-09T13:14:11;16.70;99.90
2723;DHT22;1369;53.216;10.396;2023-04-09T13:16:39;16.60;99.90
2723;DHT22;1369;53.216;10.396;2023-04-09T13:19:06;16.60;99.90
2723;DHT22;1369;53.216;10.396;2023-04-09T13:21:32;16.80;99.90
2723;DHT22;1369;53.216;10.396;2023-04-09T13:23:58;16.90;99.90
2723;DHT22;1369;53.216;10.396;2023-04-09T13:26:23;17.00;99.90
2723;DHT22;1369;53.216;10.396;2023-04-09T13:28:49;17.00;99.90
2723;DHT22;1369;53.216;10.396;2023-04-09T13:31:16;16.30;99.90
2723;DHT22;1369;53.216;10.396;2023-04-09T13:33:41;16.20;99.90
2723;DHT22;1369;53.216;10.396;2023-04-09T13:36:07;16.20;99.90
2723;DHT22;1369;53.216;10.396;2023-04-09T13:38:32;16.20;99.90
2723;DHT22;1369;53.216;10.396;2023-04-09T13:40:58;16.30;99.90
2723;DHT22;1369;53.216;10.396;2023-04-09T13:43:23;16.50;99.90
2723;DHT22;1369;53.216;10.396;2023-04-09T13:45:52;16.40;99.90
2723;DHT22;1369;53.216;10.396;2023-04-09T13:48:19;16.40;99.90
2723;DHT22;1369;53.216;10.396;2023-04-09T13:50:45;16.50;99.90
2723;DHT22;1369;53.216;10.396;2023-04-09T13:53:11;16.20;99.90
2723;DHT22;1369;53.216;10.396;2023-04-09T13:55:37;16.10;99.90
2723;DHT22;1369;53.216;10.396;2023-04-09T13:58:02;16.30;99.90
2723;DHT22;1369;53.216;10.396;2023-04-09T14:00:29;16.30;99.90
2723;DHT22;1369;53.216;10.396;2023-04-09T14:02:54;16.30;99.90
2723;DHT22;1369;53.216;10.396;2023-04-09T14:05:20;16.40;99.90
2723;DHT22;1369;53.216;10.396;2023-04-09T14:07:45;16.30;99.90
2723;DHT22;1369;53.216;10.396;2023-04-09T14:10:11;16.20;99.90
2723;DHT22;1369;53.216;10.396;2023-04-09T14:12:36;16.10;99.90
2723;DHT22;1369;53.216;10.396;2023-04-09T14:15:02;15.90;99.90
2723;DHT22;1369;53.216;10.396;2023-04-09T14:17:28;15.70;99.90
2723;DHT22;1369;53.216;10.396;2023-04-09T14:19:53;15.70;99.90
2723;DHT22;1369;53.216;10.396;2023-04-09T14:22:19;15.70;99.90
2723;DHT22;1369;53.216;10.396;2023-04-09T14:24:44;15.80;99.90
2723;DHT22;1369;53.216;10.396;2023-04-09T14:27:10;15.90;99.90
2723;DHT22;1369;53.216;10.396;2023-04-09T14:29:35;16.00;99.90
2723;DHT22;1369;53.216;10.396;2023-04-09T14:32:01;16.20;99.90
2723;DHT22;1369;53.216;10.396;2023-04-09T14:34:29;16.30;99.90
2723;DHT22;1369;53.216;10.396;2023-04-09T14:36:55;16.20;99.90
2723;DHT22;1369;53.216;10.396;2023-04-09T14:39:21;16.20;99.90
2723;DHT22;1369;53.216;10.396;2023-04-09T14:41:46;16.20;99.90
2723;DHT22;1369;53.216;10.396;2023-04-09T14:44:12;16.20;99.90
2723;DHT22;1369;53.216;10.396;2023-04-09T14:46:37;16.30;99.90
2723;DHT22;1369;53.216;10.396;2023-04-09T14:49:03;16.30;99.90
2723;DHT22;1369;53.216;10.396;2023-04-09T14:51:28;16.20;99.90
2723;DHT22;1369;53.216;10.396;2023-04-09T14:53:57;16.10;99.90
2723;DHT22;1369;53.216;10.396;2023-04-09T14:56:22;16.10;99.90
2723;DHT22;1369;53.216;10.396;2023-04-09T14:58:49;16.10;99.90
2723;DHT22;1369;53.216;10.396;2023-04-09T15:01:15;15.90;99.90
2723;DHT22;1369;53.216;10.396;2023-04-09T15:03:41;15.80;99.90
2723;DHT22;1369;53.216;10.396;2023-04-09T15:06:06;15.90;99.90
2723;DHT22;1369;53.216;10.396;2023-04-09T15:08:32;15.90;99.90
2723;DHT22;1369;53.216;10.396;2023-04-09T15:10:57;15.90;99.90
2723;DHT22;1369;53.216;10.396;2023-04-09T15:13:23;15.80;99.90
2723;DHT22;1369;53.216;10.396;2023-04-09T15:15:49;15.80;99.90
2723;DHT22;1369;53.216;10.396;2023-04-09T15:18:14;15.80;99.90
2723;DHT22;1369;53.216;10.396;2023-04-09T15:20:41;15.60;99.90
2723;DHT22;1369;53.216;10.396;2023-04-09T15:23:08;15.60;99.90
2723;DHT22;1369;53.216;10.396;2023-04-09T15:25:34;15.70;99.90
2723;DHT22;1369;53.216;10.396;2023-04-09T15:28:03;15.70;99.90
2723;DHT22;1369;53.216;10.396;2023-04-09T15:30:29;15.60;99.90
2723;DHT22;1369;53.216;10.396;2023-04-09T15:32:55;15.40;99.90
2723;DHT22;1369;53.216;10.396;2023-04-09T15:35:20;15.40;99.90
2723;DHT22;1369;53.216;10.396;2023-04-09T15:37:50;15.40;99.90
2723;DHT22;1369;53.216;10.396;2023-04-09T15:40:17;15.40;99.90
2723;DHT22;1369;53.216;10.396;2023-04-09T15:42:42;15.30;99.90
2723;DHT22;1369;53.216;10.396;2023-04-09T15:45:08;15.30;99.90
2723;DHT22;1369;53.216;10.396;2023-04-09T15:47:34;15.20;99.90
2723;DHT22;1369;53.216;10.396;2023-04-09T15:50:00;15.00;99.90
2723;DHT22;1369;53.216;10.396;2023-04-09T15:52:25;14.80;99.90
2723;DHT22;1369;53.216;10.396;2023-04-09T15:54:51;14.70;99.90
2723;DHT22;1369;53.216;10.396;2023-04-09T15:57:17;14.60;99.90
2723;DHT22;1369;53.216;10.396;2023-04-09T15:59:43;14.60;99.90
2723;DHT22;1369;53.216;10.396;2023-04-09T16:02:09;14.50;99.90